sensor_id;sensor_type;location;lat;lon;timestamp;pressure;altitude;pressure_sealevel;temperature;humidity
30724;BME280;17473;52.286;20.930;2023-06-22T00:00:22;100317.75;;;22.31;100.00
30724;BME280;17473;52.286;20.930;2023-06-22T00:02:49;100322.22;;;22.31;100.00
30724;BME280;17473;52.286;20.930;2023-06-22T00:05:17;100317.00;;;22.20;100.00
30724;BME280;17473;52.286;20.930;2023-06-22T00:07:44;100313.34;;;22.26;100.00
30724;BME280;17473;52.286;20.930;2023-06-22T00:10:11;100322.56;;;22.09;100.00
30724;BME280;17473;52.286;20.930;2023-06-22T00:12:38;100323.56;;;22.00;100.00
30724;BME280;17473;52.286;20.930;2023-06-22T00:15:06;100325.38;;;22.00;100.00
30724;BME280;17473;52.286;20.930;2023-06-22T00:17:33;100323.47;;;22.08;100.00
30724;BME280;17473;52.286;20.930;2023-06-22T00:20:00;100325.31;;;22.03;100.00
30724;BME280;17473;52.286;20.930;2023-06-22T00:22:27;100318.19;;;22.00;100.00
30724;BME280;17473;52.286;20.930;2023-06-22T00:24:56;100326.38;;;21.91;100.00
30724;BME280;17473;52.286;20.930;2023-06-22T00:27:23;100320.13;;;21.91;100.00
30724;BME280;17473;52.286;20.930;2023-06-22T00:29:51;100319.16;;;21.96;100.00
30724;BME280;17473;52.286;20.930;2023-06-22T00:32:18;100310.34;;;21.85;100.00
30724;BME280;17473;52.286;20.930;2023-06-22T00:34:46;100314.75;;;21.89;100.00
30724;BME280;17473;52.286;20.930;2023-06-22T00:37:13;100313.09;;;21.80;100.00
30724;BME280;17473;52.286;20.930;2023-06-22T00:39:41;100308.72;;;21.71;100.00
30724;BME280;17473;52.286;20.930;2023-06-22T00:42:08;100313.97;;;21.82;100.00
30724;BME280;17473;52.286;20.930;2023-06-22T00:44:38;100318.38;;;21.86;100.00
30724;BME280;17473;52.286;20.930;2023-06-22T00:47:05;100314.81;;;21.84;100.00
30724;BME280;17473;52.286;20.930;2023-06-22T00:49:33;100315.75;;;21.82;100.00
30724;BME280;17473;52.286;20.930;2023-06-22T00:52:01;100315.03;;;21.69;100.00
30724;BME280;17473;52.286;20.930;2023-06-22T00:54:28;100302.56;;;21.65;100.00
30724;BME280;17473;52.286;20.930;2023-06-22T00:56:57;100304.34;;;21.64;100.00
30724;BME280;17473;52.286;20.930;2023-06-22T00:59:26;100303.44;;;21.65;100.00
30724;BME280;17473;52.286;20.930;2023-06-22T01:01:54;100297.03;;;21.74;100.00
30724;BME280;17473;52.286;20.930;2023-06-22T01:04:35;100295.41;;;21.64;100.00
30724;BME280;17473;52.286;20.930;2023-06-22T01:12:39;100287.38;;;21.62;100.00
30724;BME280;17473;52.286;20.930;2023-06-22T01:15:33;100288.34;;;21.53;100.00
30724;BME280;17473;52.286;20.930;2023-06-22T01:18:04;100281.16;;;21.54;100.00
30724;BME280;17473;52.286;20.930;2023-06-22T01:20:34;100280.28;;;21.52;100.00
30724;BME280;17473;52.286;20.930;2023-06-22T01:23:27;100284.81;;;21.48;100.00
30724;BME280;17473;52.286;20.930;2023-06-22T01:26:12;100292.03;;;21.45;100.00
30724;BME280;17473;52.286;20.930;2023-06-22T01:28:52;100274.94;;;21.52;100.00
30724;BME280;17473;52.286;20.930;2023-06-22T01:31:24;100270.47;;;21.52;100.00
30724;BME280;17473;52.286;20.930;2023-06-22T01:33:59;100273.19;;;21.48;100.00
30724;BME280;17473;52.286;20.930;2023-06-22T01:36:27;100280.22;;;21.56;100.00
30724;BME280;17473;52.286;20.930;2023-06-22T01:38:57;100279.41;;;21.54;100.00
30724;BME280;17473;52.286;20.930;2023-06-22T01:41:27;100279.41;;;21.53;100.00
30724;BME280;17473;52.286;20.930;2023-06-22T01:43:56;100269.72;;;21.42;100.00
30724;BME280;17473;52.286;20.930;2023-06-22T01:46:24;100279.47;;;21.47;100.00
30724;BME280;17473;52.286;20.930;2023-06-22T01:48:52;100279.34;;;21.61;100.00
30724;BME280;17473;52.286;20.930;2023-06-22T01:51:20;100287.34;;;21.65;100.00
30724;BME280;17473;52.286;20.930;2023-06-22T01:53:47;100291.84;;;21.63;100.00
30724;BME280;17473;52.286;20.930;2023-06-22T01:56:17;100281.97;;;21.65;100.00
30724;BME280;17473;52.286;20.930;2023-06-22T01:59:12;100292.75;;;21.61;100.00
30724;BME280;17473;52.286;20.930;2023-06-22T02:01:52;100304.41;;;21.60;100.00
30724;BME280;17473;52.286;20.930;2023-06-22T02:04:27;100313.38;;;21.58;100.00
30724;BME280;17473;52.286;20.930;2023-06-22T02:06:58;100310.69;;;21.58;100.00
30724;BME280;17473;52.286;20.930;2023-06-22T02:09:29;100324.13;;;21.58;100.00
30724;BME280;17473;52.286;20.930;2023-06-22T02:11:58;100322.34;;;21.56;100.00
30724;BME280;17473;52.286;20.930;2023-06-22T02:14:27;100324.19;;;21.49;100.00
30724;BME280;17473;52.286;20.930;2023-06-22T02:16:56;100326.91;;;21.48;100.00
30724;BME280;17473;52.286;20.930;2023-06-22T02:19:27;100322.56;;;21.37;100.00
30724;BME280;17473;52.286;20.930;2023-06-22T02:21:54;100329.75;;;21.35;100.00
30724;BME280;17473;52.286;20.930;2023-06-22T02:24:21;100331.56;;;21.33;100.00
30724;BME280;17473;52.286;20.930;2023-06-22T02:26:50;100317.22;;;21.34;100.00
30724;BME280;17473;52.286;20.930;2023-06-22T02:29:17;100335.13;;;21.37;100.00
30724;BME280;17473;52.286;20.930;2023-06-22T02:31:45;100337.88;;;21.29;100.00
30724;BME280;17473;52.286;20.930;2023-06-22T02:34:12;100347.69;;;21.33;100.00
30724;BME280;17473;52.286;20.930;2023-06-22T02:36:46;100344.06;;;21.34;100.00
30724;BME280;17473;52.286;20.930;2023-06-22T02:39:25;100353.91;;;21.35;100.00
30724;BME280;17473;52.286;20.930;2023-06-22T02:41:54;100350.19;;;21.47;100.00
30724;BME280;17473;52.286;20.930;2023-06-22T02:44:21;100365.44;;;21.45;100.00
30724;BME280;17473;52.286;20.930;2023-06-22T02:46:49;100360.19;;;21.34;100.00
30724;BME280;17473;52.286;20.930;2023-06-22T02:49:16;100368.22;;;21.37;100.00
30724;BME280;17473;52.286;20.930;2023-06-22T02:51:48;100370.91;;;21.34;100.00
30724;BME280;17473;52.286;20.930;2023-06-22T02:54:16;100378.16;;;21.27;100.00
30724;BME280;17473;52.286;20.930;2023-06-22T02:56:43;100384.34;;;21.34;100.00
30724;BME280;17473;52.286;20.930;2023-06-22T02:59:11;100382.59;;;21.33;100.00
30724;BME280;17473;52.286;20.930;2023-06-22T03:01:38;100374.53;;;21.32;100.00
30724;BME280;17473;52.286;20.930;2023-06-22T03:04:08;100377.19;;;21.35;100.00
30724;BME280;17473;52.286;20.930;2023-06-22T03:06:36;100380.63;;;21.48;100.00
30724;BME280;17473;52.286;20.930;2023-06-22T03:09:04;100387.78;;;21.49;100.00
30724;BME280;17473;52.286;20.930;2023-06-22T03:11:33;100383.38;;;21.40;100.00
30724;BME280;17473;52.286;20.930;2023-06-22T03:14:01;100387.88;;;21.42;100.00
30724;BME280;17473;52.286;20.930;2023-06-22T03:16:28;100386.09;;;21.38;100.00
30724;BME280;17473;52.286;20.930;2023-06-22T03:18:56;100389.69;;;21.37;100.00
30724;BME280;17473;52.286;20.930;2023-06-22T03:21:23;100387.84;;;21.44;100.00
30724;BME280;17473;52.286;20.930;2023-06-22T03:23:51;100391.13;;;21.72;100.00
30724;BME280;17473;52.286;20.930;2023-06-22T03:26:18;100394.84;;;21.61;100.00
30724;BME280;17473;52.286;20.930;2023-06-22T03:28:46;100391.34;;;21.51;100.00
30724;BME280;17473;52.286;20.930;2023-06-22T03:31:13;100389.59;;;21.47;100.00
30724;BME280;17473;52.286;20.930;2023-06-22T03:33:41;100397.53;;;21.57;100.00
30724;BME280;17473;52.286;20.930;2023-06-22T03:36:08;100396.59;;;21.63;100.00
30724;BME280;17473;52.286;20.930;2023-06-22T03:38:35;100407.22;;;21.76;100.00
30724;BME280;17473;52.286;20.930;2023-06-22T03:41:02;100407.16;;;21.80;100.00
30724;BME280;17473;52.286;20.930;2023-06-22T03:43:29;100405.41;;;21.78;100.00
30724;BME280;17473;52.286;20.930;2023-06-22T03:45:56;100415.22;;;21.80;100.00
30724;BME280;17473;52.286;20.930;2023-06-22T03:48:24;100412.28;;;21.97;100.00
30724;BME280;17473;52.286;20.930;2023-06-22T03:50:51;100420.28;;;22.05;100.00
30724;BME280;17473;52.286;20.930;2023-06-22T03:53:18;100416.81;;;21.94;100.00
30724;BME280;17473;52.286;20.930;2023-06-22T03:55:52;100423.06;;;21.97;100.00
30724;BME280;17473;52.286;20.930;2023-06-22T03:58:20;100421.25;;;21.99;100.00
30724;BME280;17473;52.286;20.930;2023-06-22T04:00:52;100424.63;;;22.15;100.00
30724;BME280;17473;52.286;20.930;2023-06-22T04:03:20;100431.31;;;22.52;100.00
30724;BME280;17473;52.286;20.930;2023-06-22T04:05:48;100428.59;;;23.10;100.00
30724;BME280;17473;52.286;20.930;2023-06-22T04:08:16;100424.09;;;23.62;96.84
30724;BME280;17473;52.286;20.930;2023-06-22T04:10:43;100434.03;;;24.05;92.87
30724;BME280;17473;52.286;20.930;2023-06-22T04:13:10;100435.22;;;24.74;88.78
30724;BME280;17473;52.286;20.930;2023-06-22T04:15:38;100440.34;;;25.21;85.21
30724;BME280;17473;52.286;20.930;2023-06-22T04:18:05;100445.47;;;26.29;80.02
30724;BME280;17473;52.286;20.930;2023-06-22T04:20:32;100442.28;;;27.01;75.10
30724;BME280;17473;52.286;20.930;2023-06-22T04:23:00;100444.28;;;26.96;74.89
30724;BME280;17473;52.286;20.930;2023-06-22T04:25:27;100452.88;;;26.82;74.96
30724;BME280;17473;52.286;20.930;2023-06-22T04:27:54;100453.00;;;26.18;78.24
30724;BME280;17473;52.286;20.930;2023-06-22T04:30:21;100456.44;;;25.60;81.50
30724;BME280;17473;52.286;20.930;2023-06-22T04:32:49;100457.28;;;24.91;85.05
30724;BME280;17473;52.286;20.930;2023-06-22T04:35:24;100447.84;;;24.72;86.88
30724;BME280;17473;52.286;20.930;2023-06-22T04:37:53;100456.19;;;24.61;87.75
30724;BME280;17473;52.286;20.930;2023-06-22T04:40:24;100453.63;;;24.14;91.56
30724;BME280;17473;52.286;20.930;2023-06-22T04:42:51;100447.31;;;24.15;91.28
30724;BME280;17473;52.286;20.930;2023-06-22T04:45:21;100446.50;;;23.64;94.47
30724;BME280;17473;52.286;20.930;2023-06-22T04:47:49;100451.09;;;23.59;95.68
30724;BME280;17473;52.286;20.930;2023-06-22T04:50:16;100452.19;;;23.96;93.58
30724;BME280;17473;52.286;20.930;2023-06-22T04:52:44;100439.81;;;23.84;94.66
30724;BME280;17473;52.286;20.930;2023-06-22T04:55:12;100452.69;;;23.69;95.93
30724;BME280;17473;52.286;20.930;2023-06-22T04:57:41;100451.97;;;23.59;96.47
30724;BME280;17473;52.286;20.930;2023-06-22T05:00:12;100442.19;;;23.54;96.92
30724;BME280;17473;52.286;20.930;2023-06-22T05:02:40;100445.97;;;23.45;97.06
30724;BME280;17473;52.286;20.930;2023-06-22T05:05:08;100449.25;;;23.61;96.51
30724;BME280;17473;52.286;20.930;2023-06-22T05:07:36;100444.97;;;23.51;97.91
30724;BME280;17473;52.286;20.930;2023-06-22T05:10:04;100449.13;;;23.67;96.52
30724;BME280;17473;52.286;20.930;2023-06-22T05:12:32;100449.44;;;23.50;97.99
30724;BME280;17473;52.286;20.930;2023-06-22T05:14:59;100453.63;;;23.67;96.82
30724;BME280;17473;52.286;20.930;2023-06-22T05:17:26;100452.78;;;23.63;97.08
30724;BME280;17473;52.286;20.930;2023-06-22T05:19:54;100441.91;;;23.68;96.59
30724;BME280;17473;52.286;20.930;2023-06-22T05:22:22;100446.13;;;23.83;96.17
30724;BME280;17473;52.286;20.930;2023-06-22T05:24:49;100444.34;;;23.82;96.40
30724;BME280;17473;52.286;20.930;2023-06-22T05:27:16;100453.00;;;23.99;94.66
30724;BME280;17473;52.286;20.930;2023-06-22T05:29:43;100450.22;;;24.05;94.11
30724;BME280;17473;52.286;20.930;2023-06-22T05:32:10;100457.88;;;23.80;96.20
30724;BME280;17473;52.286;20.930;2023-06-22T05:34:38;100457.19;;;23.69;96.46
30724;BME280;17473;52.286;20.930;2023-06-22T05:37:06;100461.69;;;23.67;97.34
30724;BME280;17473;52.286;20.930;2023-06-22T05:39:33;100468.59;;;23.82;96.88
30724;BME280;17473;52.286;20.930;2023-06-22T05:42:00;100468.31;;;23.99;95.03
30724;BME280;17473;52.286;20.930;2023-06-22T05:44:27;100467.88;;;24.19;94.62
30724;BME280;17473;52.286;20.930;2023-06-22T05:46:54;100475.25;;;24.11;94.81
30724;BME280;17473;52.286;20.930;2023-06-22T05:49:22;100483.09;;;24.23;93.66
30724;BME280;17473;52.286;20.930;2023-06-22T05:51:50;100481.50;;;24.13;93.33
30724;BME280;17473;52.286;20.930;2023-06-22T05:54:18;100478.84;;;24.11;93.99
30724;BME280;17473;52.286;20.930;2023-06-22T05:56:45;100469.00;;;24.10;94.14
30724;BME280;17473;52.286;20.930;2023-06-22T05:59:12;100474.81;;;24.31;93.07
30724;BME280;17473;52.286;20.930;2023-06-22T06:01:39;100464.78;;;24.37;92.23
30724;BME280;17473;52.286;20.930;2023-06-22T06:04:07;100463.25;;;24.26;92.22
30724;BME280;17473;52.286;20.930;2023-06-22T06:06:35;100483.38;;;24.51;91.72
30724;BME280;17473;52.286;20.930;2023-06-22T06:09:04;100487.91;;;24.49;90.69
30724;BME280;17473;52.286;20.930;2023-06-22T06:11:32;100490.81;;;24.40;91.62
30724;BME280;17473;52.286;20.930;2023-06-22T06:13:59;100497.34;;;24.71;88.10
30724;BME280;17473;52.286;20.930;2023-06-22T06:16:26;100499.00;;;24.78;88.13
30724;BME280;17473;52.286;20.930;2023-06-22T06:18:53;100496.31;;;24.76;88.33
30724;BME280;17473;52.286;20.930;2023-06-22T06:21:23;100502.81;;;26.12;80.13
30724;BME280;17473;52.286;20.930;2023-06-22T06:23:54;100504.53;;;26.75;77.14
30724;BME280;17473;52.286;20.930;2023-06-22T06:26:21;100501.94;;;27.00;75.68
30724;BME280;17473;52.286;20.930;2023-06-22T06:28:56;100502.97;;;27.24;72.43
30724;BME280;17473;52.286;20.930;2023-06-22T06:31:24;100497.81;;;26.88;75.08
30724;BME280;17473;52.286;20.930;2023-06-22T06:33:51;100504.41;;;26.79;73.89
30724;BME280;17473;52.286;20.930;2023-06-22T06:36:19;100503.28;;;26.86;73.64
30724;BME280;17473;52.286;20.930;2023-06-22T06:38:46;100505.75;;;26.94;74.33
30724;BME280;17473;52.286;20.930;2023-06-22T06:41:15;100490.41;;;28.72;66.80
30724;BME280;17473;52.286;20.930;2023-06-22T06:43:43;100498.59;;;29.80;62.04
30724;BME280;17473;52.286;20.930;2023-06-22T06:46:10;100498.09;;;29.70;62.43
30724;BME280;17473;52.286;20.930;2023-06-22T06:48:38;100489.00;;;29.06;64.15
30724;BME280;17473;52.286;20.930;2023-06-22T06:51:05;100494.41;;;28.85;65.18
30724;BME280;17473;52.286;20.930;2023-06-22T06:53:37;100490.06;;;30.08;60.09
30724;BME280;17473;52.286;20.930;2023-06-22T06:56:05;100490.09;;;29.02;62.48
30724;BME280;17473;52.286;20.930;2023-06-22T06:58:32;100491.78;;;32.12;53.59
30724;BME280;17473;52.286;20.930;2023-06-22T07:00:59;100489.38;;;34.11;47.75
30724;BME280;17473;52.286;20.930;2023-06-22T07:03:26;100487.94;;;34.90;45.15
30724;BME280;17473;52.286;20.930;2023-06-22T07:05:54;100487.00;;;35.85;42.87
30724;BME280;17473;52.286;20.930;2023-06-22T07:08:21;100480.69;;;36.97;39.51
30724;BME280;17473;52.286;20.930;2023-06-22T07:10:48;100484.94;;;36.14;40.75
30724;BME280;17473;52.286;20.930;2023-06-22T07:13:15;100471.72;;;34.73;43.33
30724;BME280;17473;52.286;20.930;2023-06-22T07:15:42;100478.59;;;34.37;43.79
30724;BME280;17473;52.286;20.930;2023-06-22T07:18:09;100484.38;;;32.81;47.24
30724;BME280;17473;52.286;20.930;2023-06-22T07:20:36;100490.91;;;32.29;48.12
30724;BME280;17473;52.286;20.930;2023-06-22T07:23:04;100481.81;;;33.85;44.97
30724;BME280;17473;52.286;20.930;2023-06-22T07:25:31;100494.13;;;35.75;40.73
30724;BME280;17473;52.286;20.930;2023-06-22T07:28:06;100502.06;;;37.18;36.71
30724;BME280;17473;52.286;20.930;2023-06-22T07:30:34;100501.84;;;38.04;35.03
30724;BME280;17473;52.286;20.930;2023-06-22T07:33:02;100502.28;;;37.15;35.71
30724;BME280;17473;52.286;20.930;2023-06-22T07:35:32;100498.72;;;38.54;34.17
30724;BME280;17473;52.286;20.930;2023-06-22T07:37:59;100494.59;;;38.14;34.97
30724;BME280;17473;52.286;20.930;2023-06-22T07:40:31;100490.84;;;39.49;32.29
30724;BME280;17473;52.286;20.930;2023-06-22T07:42:58;100499.44;;;39.34;32.20
30724;BME280;17473;52.286;20.930;2023-06-22T07:45:26;100488.75;;;39.08;32.03
30724;BME280;17473;52.286;20.930;2023-06-22T07:47:53;100494.13;;;39.64;31.27
30724;BME280;17473;52.286;20.930;2023-06-22T07:50:20;100491.47;;;38.30;32.83
30724;BME280;17473;52.286;20.930;2023-06-22T07:52:47;100493.50;;;37.10;34.71
30724;BME280;17473;52.286;20.930;2023-06-22T07:55:15;100498.66;;;36.90;34.30
30724;BME280;17473;52.286;20.930;2023-06-22T07:57:42;100489.84;;;37.34;33.12
30724;BME280;17473;52.286;20.930;2023-06-22T08:00:10;100501.72;;;38.17;32.31
30724;BME280;17473;52.286;20.930;2023-06-22T08:02:46;100496.19;;;38.74;31.46
30724;BME280;17473;52.286;20.930;2023-06-22T08:05:15;100502.09;;;38.01;32.47
30724;BME280;17473;52.286;20.930;2023-06-22T08:07:45;100492.41;;;37.84;32.41
30724;BME280;17473;52.286;20.930;2023-06-22T08:10:14;100489.97;;;38.38;31.36
30724;BME280;17473;52.286;20.930;2023-06-22T08:12:42;100480.41;;;38.08;31.75
30724;BME280;17473;52.286;20.930;2023-06-22T08:15:09;100486.72;;;37.63;31.45
30724;BME280;17473;52.286;20.930;2023-06-22T08:17:38;100477.59;;;37.73;31.84
30724;BME280;17473;52.286;20.930;2023-06-22T08:20:07;100488.44;;;37.52;32.06
30724;BME280;17473;52.286;20.930;2023-06-22T08:22:41;100481.53;;;37.47;32.54
30724;BME280;17473;52.286;20.930;2023-06-22T08:25:10;100482.84;;;37.05;32.97
30724;BME280;17473;52.286;20.930;2023-06-22T08:27:37;100483.97;;;37.03;31.96
30724;BME280;17473;52.286;20.930;2023-06-22T08:30:06;100487.84;;;37.36;31.76
30724;BME280;17473;52.286;20.930;2023-06-22T08:32:34;100494.66;;;36.94;31.68
30724;BME280;17473;52.286;20.930;2023-06-22T08:35:02;100495.72;;;37.05;32.21
30724;BME280;17473;52.286;20.930;2023-06-22T08:37:29;100495.03;;;37.85;30.99
30724;BME280;17473;52.286;20.930;2023-06-22T08:40:06;100489.44;;;37.87;30.89
30724;BME280;17473;52.286;20.930;2023-06-22T08:42:40;100489.84;;;37.58;30.17
30724;BME280;17473;52.286;20.930;2023-06-22T08:45:09;100501.50;;;37.13;30.24
30724;BME280;17473;52.286;20.930;2023-06-22T08:47:37;100497.66;;;37.16;30.63
30724;BME280;17473;52.286;20.930;2023-06-22T08:50:05;100489.75;;;37.71;29.82
30724;BME280;17473;52.286;20.930;2023-06-22T08:52:35;100500.25;;;37.77;29.96
30724;BME280;17473;52.286;20.930;2023-06-22T08:55:04;100495.28;;;37.11;30.87
30724;BME280;17473;52.286;20.930;2023-06-22T08:57:31;100505.66;;;36.81;31.05
30724;BME280;17473;52.286;20.930;2023-06-22T08:59:59;100507.78;;;37.39;30.10
30724;BME280;17473;52.286;20.930;2023-06-22T09:02:27;100516.38;;;37.35;29.72
30724;BME280;17473;52.286;20.930;2023-06-22T09:04:59;100506.22;;;37.35;29.84
30724;BME280;17473;52.286;20.930;2023-06-22T09:07:26;100515.09;;;37.27;29.44
30724;BME280;17473;52.286;20.930;2023-06-22T09:09:54;100515.91;;;37.17;29.58
30724;BME280;17473;52.286;20.930;2023-06-22T09:12:21;100509.06;;;36.85;29.79
30724;BME280;17473;52.286;20.930;2023-06-22T09:14:53;100511.72;;;37.24;29.50
30724;BME280;17473;52.286;20.930;2023-06-22T09:17:20;100502.94;;;36.81;29.93
30724;BME280;17473;52.286;20.930;2023-06-22T09:19:47;100498.59;;;36.66;29.24
30724;BME280;17473;52.286;20.930;2023-06-22T09:22:15;100504.16;;;36.14;29.57
30724;BME280;17473;52.286;20.930;2023-06-22T09:24:42;100496.69;;;36.79;29.46
30724;BME280;17473;52.286;20.930;2023-06-22T09:27:09;100487.13;;;36.72;29.09
30724;BME280;17473;52.286;20.930;2023-06-22T09:29:37;100494.34;;;36.23;29.90
30724;BME280;17473;52.286;20.930;2023-06-22T09:32:04;100483.13;;;36.39;29.47
30724;BME280;17473;52.286;20.930;2023-06-22T09:34:32;100482.13;;;36.40;29.24
30724;BME280;17473;52.286;20.930;2023-06-22T09:36:59;100492.34;;;36.88;28.46
30724;BME280;17473;52.286;20.930;2023-06-22T09:39:29;100481.97;;;36.17;28.92
30724;BME280;17473;52.286;20.930;2023-06-22T09:41:59;100491.41;;;36.13;29.00
30724;BME280;17473;52.286;20.930;2023-06-22T09:44:29;100487.72;;;36.64;28.06
30724;BME280;17473;52.286;20.930;2023-06-22T09:46:57;100484.13;;;35.86;29.62
30724;BME280;17473;52.286;20.930;2023-06-22T09:49:24;100479.13;;;35.93;29.63
30724;BME280;17473;52.286;20.930;2023-06-22T09:52:11;100472.94;;;35.90;29.85
30724;BME280;17473;52.286;20.930;2023-06-22T09:54:38;100479.72;;;35.45;31.20
30724;BME280;17473;52.286;20.930;2023-06-22T09:57:06;100480.25;;;35.63;31.27
30724;BME280;17473;52.286;20.930;2023-06-22T09:59:33;100483.34;;;35.84;30.76
30724;BME280;17473;52.286;20.930;2023-06-22T10:02:00;100476.19;;;35.43;30.79
30724;BME280;17473;52.286;20.930;2023-06-22T10:04:27;100477.75;;;34.78;31.14
30724;BME280;17473;52.286;20.930;2023-06-22T10:06:55;100470.88;;;34.58;31.65
30724;BME280;17473;52.286;20.930;2023-06-22T10:09:22;100473.03;;;34.38;32.15
30724;BME280;17473;52.286;20.930;2023-06-22T10:11:49;100481.41;;;34.35;32.47
30724;BME280;17473;52.286;20.930;2023-06-22T10:14:16;100485.50;;;34.71;31.86
30724;BME280;17473;52.286;20.930;2023-06-22T10:16:43;100477.50;;;34.68;32.19
30724;BME280;17473;52.286;20.930;2023-06-22T10:19:11;100491.81;;;34.86;32.00
30724;BME280;17473;52.286;20.930;2023-06-22T10:21:38;100482.72;;;35.00;31.80
30724;BME280;17473;52.286;20.930;2023-06-22T10:24:05;100495.97;;;34.79;31.54
30724;BME280;17473;52.286;20.930;2023-06-22T10:26:33;100488.31;;;34.84;31.37
30724;BME280;17473;52.286;20.930;2023-06-22T10:29:04;100482.13;;;34.39;32.06
30724;BME280;17473;52.286;20.930;2023-06-22T10:31:34;100482.13;;;34.53;32.06
30724;BME280;17473;52.286;20.930;2023-06-22T10:34:02;100481.66;;;34.88;31.12
30724;BME280;17473;52.286;20.930;2023-06-22T10:36:29;100473.41;;;34.32;31.89
30724;BME280;17473;52.286;20.930;2023-06-22T10:38:56;100461.56;;;34.31;32.00
30724;BME280;17473;52.286;20.930;2023-06-22T10:41:26;100465.63;;;34.40;32.24
30724;BME280;17473;52.286;20.930;2023-06-22T10:43:56;100464.22;;;33.90;33.05
30724;BME280;17473;52.286;20.930;2023-06-22T10:46:26;100455.13;;;33.44;33.43
30724;BME280;17473;52.286;20.930;2023-06-22T10:48:54;100470.50;;;33.61;33.37
30724;BME280;17473;52.286;20.930;2023-06-22T10:51:24;100469.25;;;33.52;33.53
30724;BME280;17473;52.286;20.930;2023-06-22T10:53:52;100460.38;;;33.33;33.58
30724;BME280;17473;52.286;20.930;2023-06-22T10:56:19;100459.28;;;33.05;34.06
30724;BME280;17473;52.286;20.930;2023-06-22T10:58:46;100461.59;;;33.27;34.02
30724;BME280;17473;52.286;20.930;2023-06-22T11:01:14;100459.19;;;32.90;34.60
30724;BME280;17473;52.286;20.930;2023-06-22T11:04:01;100458.16;;;32.93;34.52
30724;BME280;17473;52.286;20.930;2023-06-22T11:06:28;100457.97;;;32.64;34.68
30724;BME280;17473;52.286;20.930;2023-06-22T11:08:56;100452.97;;;32.88;33.99
30724;BME280;17473;52.286;20.930;2023-06-22T11:11:32;100453.44;;;33.11;34.21
30724;BME280;17473;52.286;20.930;2023-06-22T11:13:59;100449.53;;;32.85;34.21
30724;BME280;17473;52.286;20.930;2023-06-22T11:16:27;100458.00;;;32.80;34.48
30724;BME280;17473;52.286;20.930;2023-06-22T11:18:54;100455.34;;;32.62;33.85
30724;BME280;17473;52.286;20.930;2023-06-22T11:21:22;100449.59;;;32.51;34.33
30724;BME280;17473;52.286;20.930;2023-06-22T11:23:49;100439.47;;;32.37;34.17
30724;BME280;17473;52.286;20.930;2023-06-22T11:26:17;100446.06;;;32.49;34.36
30724;BME280;17473;52.286;20.930;2023-06-22T11:28:44;100447.84;;;32.66;34.55
30724;BME280;17473;52.286;20.930;2023-06-22T11:31:11;100453.19;;;32.68;34.73
30724;BME280;17473;52.286;20.930;2023-06-22T11:33:41;100447.75;;;32.68;34.65
30724;BME280;17473;52.286;20.930;2023-06-22T11:36:08;100447.56;;;32.71;34.47
30724;BME280;17473;52.286;20.930;2023-06-22T11:38:36;100447.66;;;32.37;34.96
30724;BME280;17473;52.286;20.930;2023-06-22T11:41:09;100439.72;;;32.33;35.12
30724;BME280;17473;52.286;20.930;2023-06-22T11:43:37;100452.19;;;31.87;35.56
30724;BME280;17473;52.286;20.930;2023-06-22T11:46:04;100454.13;;;31.85;35.80
30724;BME280;17473;52.286;20.930;2023-06-22T11:48:32;100449.00;;;31.79;35.85
30724;BME280;17473;52.286;20.930;2023-06-22T11:51:00;100451.06;;;31.91;35.77
30724;BME280;17473;52.286;20.930;2023-06-22T11:53:27;100450.50;;;32.18;35.21
30724;BME280;17473;52.286;20.930;2023-06-22T11:55:54;100445.06;;;32.18;35.33
30724;BME280;17473;52.286;20.930;2023-06-22T11:58:22;100447.91;;;32.33;35.06
30724;BME280;17473;52.286;20.930;2023-06-22T12:00:49;100442.91;;;32.07;35.67
30724;BME280;17473;52.286;20.930;2023-06-22T12:03:19;100441.13;;;32.06;35.20
30724;BME280;17473;52.286;20.930;2023-06-22T12:05:46;100438.38;;;32.24;35.22
30724;BME280;17473;52.286;20.930;2023-06-22T12:08:14;100444.28;;;32.32;34.83
30724;BME280;17473;52.286;20.930;2023-06-22T12:10:41;100429.44;;;32.20;34.81
30724;BME280;17473;52.286;20.930;2023-06-22T12:13:08;100439.09;;;32.43;33.71
30724;BME280;17473;52.286;20.930;2023-06-22T12:15:35;100437.16;;;32.45;34.14
30724;BME280;17473;52.286;20.930;2023-06-22T12:18:02;100431.81;;;32.10;34.39
30724;BME280;17473;52.286;20.930;2023-06-22T12:20:30;100434.31;;;31.64;34.81
30724;BME280;17473;52.286;20.930;2023-06-22T12:22:58;100442.84;;;31.75;35.04
30724;BME280;17473;52.286;20.930;2023-06-22T12:25:25;100428.59;;;31.86;34.93
30724;BME280;17473;52.286;20.930;2023-06-22T12:27:52;100429.75;;;31.98;34.58
30724;BME280;17473;52.286;20.930;2023-06-22T12:30:20;100432.94;;;31.90;34.45
30724;BME280;17473;52.286;20.930;2023-06-22T12:32:48;100432.75;;;31.93;35.09
30724;BME280;17473;52.286;20.930;2023-06-22T12:35:15;100427.03;;;31.98;34.58
30724;BME280;17473;52.286;20.930;2023-06-22T12:37:42;100418.59;;;32.03;34.55
30724;BME280;17473;52.286;20.930;2023-06-22T12:40:10;100419.44;;;31.87;35.14
30724;BME280;17473;52.286;20.930;2023-06-22T12:42:38;100423.53;;;31.96;34.52
30724;BME280;17473;52.286;20.930;2023-06-22T12:45:05;100417.63;;;32.04;34.98
30724;BME280;17473;52.286;20.930;2023-06-22T12:47:33;100425.50;;;31.92;35.40
30724;BME280;17473;52.286;20.930;2023-06-22T12:50:00;100421.47;;;31.66;35.49